sensor_id;sensor_type;location;lat;lon;timestamp;temperature;humidity
17956;DHT22;27666;51.498;11.966;2023-04-24T00:02:11;14.40;99.90
17956;DHT22;27666;51.498;11.966;2023-04-24T00:04:58;14.40;99.90
17956;DHT22;27666;51.498;11.966;2023-04-24T00:07:50;14.30;99.90
17956;DHT22;27666;51.498;11.966;2023-04-24T00:10:38;14.20;99.90
17956;DHT22;27666;51.498;11.966;2023-04-24T00:13:24;14.20;99.90
17956;DHT22;27666;51.498;11.966;2023-04-24T00:16:13;14.10;99.90
17956;DHT22;27666;51.498;11.966;2023-04-24T00:19:01;14.10;99.90
17956;DHT22;27666;51.498;11.966;2023-04-24T00:21:47;14.00;99.90
17956;DHT22;27666;51.498;11.966;2023-04-24T00:24:35;14.00;99.90
17956;DHT22;27666;51.498;11.966;2023-04-24T00:27:22;14.00;99.90
17956;DHT22;27666;51.498;11.966;2023-04-24T00:30:09;13.90;99.90
17956;DHT22;27666;51.498;11.966;2023-04-24T00:32:56;13.80;99.90
17956;DHT22;27666;51.498;11.966;2023-04-24T00:35:44;13.80;99.90
17956;DHT22;27666;51.498;11.966;2023-04-24T00:38:31;13.70;99.90
17956;DHT22;27666;51.498;11.966;2023-04-24T00:41:17;13.80;99.90
17956;DHT22;27666;51.498;11.966;2023-04-24T00:44:04;13.70;99.90
17956;DHT22;27666;51.498;11.966;2023-04-24T00:46:50;13.60;99.90
17956;DHT22;27666;51.498;11.966;2023-04-24T00:49:40;13.50;99.90
17956;DHT22;27666;51.498;11.966;2023-04-24T00:52:28;13.50;99.90
17956;DHT22;27666;51.498;11.966;2023-04-24T00:55:17;13.50;99.90
17956;DHT22;27666;51.498;11.966;2023-04-24T00:58:04;13.40;99.90
17956;DHT22;27666;51.498;11.966;2023-04-24T01:00:51;13.50;99.90
17956;DHT22;27666;51.498;11.966;2023-04-24T01:03:40;13.40;99.90
17956;DHT22;27666;51.498;11.966;2023-04-24T01:06:28;13.30;99.90
17956;DHT22;27666;51.498;11.966;2023-04-24T01:09:17;13.30;99.90
17956;DHT22;27666;51.498;11.966;2023-04-24T01:12:04;13.30;99.90
17956;DHT22;27666;51.498;11.966;2023-04-24T01:14:52;13.30;99.90
17956;DHT22;27666;51.498;11.966;2023-04-24T01:17:39;13.30;99.90
17956;DHT22;27666;51.498;11.966;2023-04-24T01:20:26;13.30;99.90
17956;DHT22;27666;51.498;11.966;2023-04-24T01:23:15;13.30;99.90
17956;DHT22;27666;51.498;11.966;2023-04-24T01:26:02;13.30;99.90
17956;DHT22;27666;51.498;11.966;2023-04-24T01:28:49;13.20;99.90
17956;DHT22;27666;51.498;11.966;2023-04-24T01:31:35;13.30;99.90
17956;DHT22;27666;51.498;11.966;2023-04-24T01:34:22;13.30;99.90
17956;DHT22;27666;51.498;11.966;2023-04-24T01:37:09;13.20;99.90
17956;DHT22;27666;51.498;11.966;2023-04-24T01:39:57;13.10;99.90
17956;DHT22;27666;51.498;11.966;2023-04-24T01:42:45;13.10;99.90
17956;DHT22;27666;51.498;11.966;2023-04-24T01:45:31;13.10;99.90
17956;DHT22;27666;51.498;11.966;2023-04-24T01:48:18;13.10;99.90
17956;DHT22;27666;51.498;11.966;2023-04-24T01:51:05;13.10;99.90
17956;DHT22;27666;51.498;11.966;2023-04-24T01:53:51;13.10;99.90
17956;DHT22;27666;51.498;11.966;2023-04-24T01:56:41;13.10;99.90
17956;DHT22;27666;51.498;11.966;2023-04-24T01:59:28;13.10;99.90
17956;DHT22;27666;51.498;11.966;2023-04-24T02:02:16;13.00;99.90
17956;DHT22;27666;51.498;11.966;2023-04-24T02:05:05;13.00;99.90
17956;DHT22;27666;51.498;11.966;2023-04-24T02:07:51;13.00;99.90
17956;DHT22;27666;51.498;11.966;2023-04-24T02:10:38;12.90;99.90
17956;DHT22;27666;51.498;11.966;2023-04-24T02:13:26;12.90;99.90
17956;DHT22;27666;51.498;11.966;2023-04-24T02:16:13;12.80;99.90
17956;DHT22;27666;51.498;11.966;2023-04-24T02:18:59;12.80;99.90
17956;DHT22;27666;51.498;11.966;2023-04-24T02:21:46;12.80;99.90
17956;DHT22;27666;51.498;11.966;2023-04-24T02:24:32;12.80;99.90
17956;DHT22;27666;51.498;11.966;2023-04-24T02:27:19;12.70;99.90
17956;DHT22;27666;51.498;11.966;2023-04-24T02:30:08;12.70;99.90
17956;DHT22;27666;51.498;11.966;2023-04-24T02:32:55;12.70;99.90
17956;DHT22;27666;51.498;11.966;2023-04-24T02:35:42;12.60;99.90
17956;DHT22;27666;51.498;11.966;2023-04-24T02:38:29;12.50;99.90
17956;DHT22;27666;51.498;11.966;2023-04-24T02:41:16;12.50;99.90
17956;DHT22;27666;51.498;11.966;2023-04-24T02:44:02;12.50;99.90
17956;DHT22;27666;51.498;11.966;2023-04-24T02:46:50;12.40;99.90
17956;DHT22;27666;51.498;11.966;2023-04-24T02:49:36;12.40;99.90
17956;DHT22;27666;51.498;11.966;2023-04-24T02:52:23;12.40;99.90
17956;DHT22;27666;51.498;11.966;2023-04-24T02:55:10;12.40;99.90
17956;DHT22;27666;51.498;11.966;2023-04-24T02:57:56;12.30;99.90
17956;DHT22;27666;51.498;11.966;2023-04-24T03:00:43;12.40;99.90
17956;DHT22;27666;51.498;11.966;2023-04-24T03:03:32;12.40;99.90
17956;DHT22;27666;51.498;11.966;2023-04-24T03:06:18;12.40;99.90
17956;DHT22;27666;51.498;11.966;2023-04-24T03:09:06;12.40;99.90
17956;DHT22;27666;51.498;11.966;2023-04-24T03:11:52;12.40;99.90
17956;DHT22;27666;51.498;11.966;2023-04-24T03:14:39;12.40;99.90
17956;DHT22;27666;51.498;11.966;2023-04-24T03:17:25;12.40;99.90
17956;DHT22;27666;51.498;11.966;2023-04-24T03:20:13;12.30;99.90
17956;DHT22;27666;51.498;11.966;2023-04-24T03:23:00;12.40;99.90
17956;DHT22;27666;51.498;11.966;2023-04-24T03:25:46;12.40;99.90
17956;DHT22;27666;51.498;11.966;2023-04-24T03:28:34;12.40;99.90
17956;DHT22;27666;51.498;11.966;2023-04-24T03:31:20;12.40;99.90
17956;DHT22;27666;51.498;11.966;2023-04-24T03:34:07;12.40;99.90
17956;DHT22;27666;51.498;11.966;2023-04-24T03:36:55;12.40;99.90
17956;DHT22;27666;51.498;11.966;2023-04-24T03:39:41;12.30;99.90
17956;DHT22;27666;51.498;11.966;2023-04-24T03:42:28;12.20;99.90
17956;DHT22;27666;51.498;11.966;2023-04-24T03:45:14;12.20;99.90
17956;DHT22;27666;51.498;11.966;2023-04-24T03:48:01;12.10;99.90
17956;DHT22;27666;51.498;11.966;2023-04-24T03:50:47;12.10;99.90
17956;DHT22;27666;51.498;11.966;2023-04-24T03:53:35;12.10;99.90
17956;DHT22;27666;51.498;11.966;2023-04-24T03:56:22;12.10;99.90
17956;DHT22;27666;51.498;11.966;2023-04-24T03:59:09;12.10;99.90
17956;DHT22;27666;51.498;11.966;2023-04-24T04:01:56;12.10;99.90
17956;DHT22;27666;51.498;11.966;2023-04-24T04:04:42;12.10;99.90
17956;DHT22;27666;51.498;11.966;2023-04-24T04:07:29;12.10;99.90
17956;DHT22;27666;51.498;11.966;2023-04-24T04:10:17;12.10;99.90
17956;DHT22;27666;51.498;11.966;2023-04-24T04:13:04;12.10;99.90
17956;DHT22;27666;51.498;11.966;2023-04-24T04:15:51;12.10;99.90
17956;DHT22;27666;51.498;11.966;2023-04-24T04:18:38;12.10;99.90
17956;DHT22;27666;51.498;11.966;2023-04-24T04:21:24;12.20;99.90
17956;DHT22;27666;51.498;11.966;2023-04-24T04:24:12;12.20;99.90
17956;DHT22;27666;51.498;11.966;2023-04-24T04:27:02;12.30;99.90
17956;DHT22;27666;51.498;11.966;2023-04-24T04:29:50;12.30;99.90
17956;DHT22;27666;51.498;11.966;2023-04-24T04:32:38;12.30;99.90
17956;DHT22;27666;51.498;11.966;2023-04-24T04:35:25;12.30;99.90
17956;DHT22;27666;51.498;11.966;2023-04-24T04:38:11;12.30;99.90
17956;DHT22;27666;51.498;11.966;2023-04-24T04:40:58;12.40;99.90
17956;DHT22;27666;51.498;11.966;2023-04-24T04:43:46;12.40;99.90
17956;DHT22;27666;51.498;11.966;2023-04-24T04:46:33;12.40;99.90
17956;DHT22;27666;51.498;11.966;2023-04-24T04:49:19;12.50;99.90
17956;DHT22;27666;51.498;11.966;2023-04-24T04:52:07;12.60;99.90
17956;DHT22;27666;51.498;11.966;2023-04-24T04:54:53;12.60;99.90
17956;DHT22;27666;51.498;11.966;2023-04-24T04:57:40;12.80;99.90
17956;DHT22;27666;51.498;11.966;2023-04-24T05:00:28;12.90;99.90
17956;DHT22;27666;51.498;11.966;2023-04-24T05:03:20;13.10;99.90
17956;DHT22;27666;51.498;11.966;2023-04-24T05:06:07;13.30;99.90
17956;DHT22;27666;51.498;11.966;2023-04-24T05:08:53;13.50;99.90
17956;DHT22;27666;51.498;11.966;2023-04-24T05:11:42;13.60;99.90
17956;DHT22;27666;51.498;11.966;2023-04-24T05:14:29;13.70;99.90
17956;DHT22;27666;51.498;11.966;2023-04-24T05:17:17;13.70;99.90
17956;DHT22;27666;51.498;11.966;2023-04-24T05:20:05;13.70;99.90
17956;DHT22;27666;51.498;11.966;2023-04-24T05:22:52;13.70;99.90
17956;DHT22;27666;51.498;11.966;2023-04-24T05:25:38;13.70;99.90
17956;DHT22;27666;51.498;11.966;2023-04-24T05:28:25;13.90;99.90
17956;DHT22;27666;51.498;11.966;2023-04-24T05:31:13;13.90;99.90
17956;DHT22;27666;51.498;11.966;2023-04-24T05:34:05;14.10;99.90
17956;DHT22;27666;51.498;11.966;2023-04-24T05:36:52;14.30;99.90
17956;DHT22;27666;51.498;11.966;2023-04-24T05:39:38;14.40;99.90
17956;DHT22;27666;51.498;11.966;2023-04-24T05:42:26;14.60;99.90
17956;DHT22;27666;51.498;11.966;2023-04-24T05:45:13;14.80;99.90
17956;DHT22;27666;51.498;11.966;2023-04-24T05:48:01;14.80;99.90
17956;DHT22;27666;51.498;11.966;2023-04-24T05:50:50;15.00;99.90
17956;DHT22;27666;51.498;11.966;2023-04-24T05:53:38;15.20;99.90
17956;DHT22;27666;51.498;11.966;2023-04-24T05:56:24;15.50;99.90
17956;DHT22;27666;51.498;11.966;2023-04-24T05:59:10;16.10;99.90
17956;DHT22;27666;51.498;11.966;2023-04-24T06:01:57;16.70;99.90
17956;DHT22;27666;51.498;11.966;2023-04-24T06:04:44;17.20;99.90
17956;DHT22;27666;51.498;11.966;2023-04-24T06:07:32;17.20;99.90
17956;DHT22;27666;51.498;11.966;2023-04-24T06:10:18;17.10;99.90
17956;DHT22;27666;51.498;11.966;2023-04-24T06:13:05;17.20;99.90
17956;DHT22;27666;51.498;11.966;2023-04-24T06:15:53;17.60;99.90
17956;DHT22;27666;51.498;11.966;2023-04-24T06:18:40;18.50;99.90
17956;DHT22;27666;51.498;11.966;2023-04-24T06:21:26;18.90;99.90
17956;DHT22;27666;51.498;11.966;2023-04-24T06:24:15;19.30;99.90
17956;DHT22;27666;51.498;11.966;2023-04-24T06:27:01;19.30;99.90
17956;DHT22;27666;51.498;11.966;2023-04-24T06:29:48;18.80;99.90
17956;DHT22;27666;51.498;11.966;2023-04-24T06:32:39;18.40;99.90
17956;DHT22;27666;51.498;11.966;2023-04-24T06:35:26;18.10;99.90
17956;DHT22;27666;51.498;11.966;2023-04-24T06:41:05;17.20;99.90
17956;DHT22;27666;51.498;11.966;2023-04-24T06:43:52;17.20;99.90
17956;DHT22;27666;51.498;11.966;2023-04-24T06:46:38;17.50;99.90
17956;DHT22;27666;51.498;11.966;2023-04-24T06:49:26;17.40;99.90
17956;DHT22;27666;51.498;11.966;2023-04-24T06:52:12;17.80;99.90
17956;DHT22;27666;51.498;11.966;2023-04-24T06:55:00;18.30;99.90
17956;DHT22;27666;51.498;11.966;2023-04-24T06:57:49;18.10;99.90
17956;DHT22;27666;51.498;11.966;2023-04-24T07:00:35;17.70;99.90
17956;DHT22;27666;51.498;11.966;2023-04-24T07:03:22;17.60;99.90
17956;DHT22;27666;51.498;11.966;2023-04-24T07:06:09;17.60;99.90
17956;DHT22;27666;51.498;11.966;2023-04-24T07:08:56;17.60;99.90
17956;DHT22;27666;51.498;11.966;2023-04-24T07:11:42;17.60;99.90
17956;DHT22;27666;51.498;11.966;2023-04-24T07:14:31;17.60;99.90
17956;DHT22;27666;51.498;11.966;2023-04-24T07:17:17;17.50;99.90
17956;DHT22;27666;51.498;11.966;2023-04-24T07:20:05;17.30;99.90
17956;DHT22;27666;51.498;11.966;2023-04-24T07:22:54;17.20;99.90
17956;DHT22;27666;51.498;11.966;2023-04-24T07:25:41;17.10;99.90
17956;DHT22;27666;51.498;11.966;2023-04-24T07:28:27;17.20;99.90
17956;DHT22;27666;51.498;11.966;2023-04-24T07:31:17;17.50;99.90
17956;DHT22;27666;51.498;11.966;2023-04-24T07:34:04;17.90;99.90
17956;DHT22;27666;51.498;11.966;2023-04-24T07:36:51;18.20;99.90
17956;DHT22;27666;51.498;11.966;2023-04-24T07:39:38;18.70;99.90
17956;DHT22;27666;51.498;11.966;2023-04-24T07:42:24;19.10;99.90
17956;DHT22;27666;51.498;11.966;2023-04-24T07:45:11;19.30;99.90
17956;DHT22;27666;51.498;11.966;2023-04-24T07:47:59;19.30;99.90
17956;DHT22;27666;51.498;11.966;2023-04-24T07:50:46;19.10;99.90
17956;DHT22;27666;51.498;11.966;2023-04-24T07:53:32;18.90;99.90
17956;DHT22;27666;51.498;11.966;2023-04-24T07:56:18;18.90;99.90
17956;DHT22;27666;51.498;11.966;2023-04-24T07:59:05;18.90;99.90
17956;DHT22;27666;51.498;11.966;2023-04-24T08:01:52;18.80;99.90
17956;DHT22;27666;51.498;11.966;2023-04-24T08:04:40;18.90;99.90
17956;DHT22;27666;51.498;11.966;2023-04-24T08:07:27;19.00;99.90
17956;DHT22;27666;51.498;11.966;2023-04-24T08:10:14;19.00;99.90
17956;DHT22;27666;51.498;11.966;2023-04-24T08:13:01;18.80;99.90
17956;DHT22;27666;51.498;11.966;2023-04-24T08:15:48;18.50;99.90
17956;DHT22;27666;51.498;11.966;2023-04-24T08:18:34;18.60;99.90
17956;DHT22;27666;51.498;11.966;2023-04-24T08:21:22;18.90;99.90
17956;DHT22;27666;51.498;11.966;2023-04-24T08:24:09;19.00;99.90
17956;DHT22;27666;51.498;11.966;2023-04-24T08:26:55;19.00;99.90
17956;DHT22;27666;51.498;11.966;2023-04-24T08:29:43;19.00;99.90
17956;DHT22;27666;51.498;11.966;2023-04-24T08:32:30;19.00;99.90
17956;DHT22;27666;51.498;11.966;2023-04-24T08:35:18;19.20;99.90
17956;DHT22;27666;51.498;11.966;2023-04-24T08:38:06;19.50;99.90
17956;DHT22;27666;51.498;11.966;2023-04-24T08:40:52;20.10;99.90
17956;DHT22;27666;51.498;11.966;2023-04-24T08:43:40;20.40;99.90
17956;DHT22;27666;51.498;11.966;2023-04-24T08:46:27;20.10;99.50
17956;DHT22;27666;51.498;11.966;2023-04-24T08:49:15;19.90;97.70
17956;DHT22;27666;51.498;11.966;2023-04-24T08:52:02;19.30;97.80
17956;DHT22;27666;51.498;11.966;2023-04-24T08:54:51;18.90;98.40
17956;DHT22;27666;51.498;11.966;2023-04-24T08:57:39;18.60;99.30
17956;DHT22;27666;51.498;11.966;2023-04-24T09:00:26;18.50;99.20
17956;DHT22;27666;51.498;11.966;2023-04-24T09:03:13;18.50;99.30
17956;DHT22;27666;51.498;11.966;2023-04-24T09:06:02;18.60;98.70
17956;DHT22;27666;51.498;11.966;2023-04-24T09:08:51;19.10;97.70
17956;DHT22;27666;51.498;11.966;2023-04-24T09:11:42;19.60;95.80
17956;DHT22;27666;51.498;11.966;2023-04-24T09:14:29;20.10;95.20
17956;DHT22;27666;51.498;11.966;2023-04-24T09:17:17;20.10;94.30
17956;DHT22;27666;51.498;11.966;2023-04-24T09:20:04;20.00;93.60
17956;DHT22;27666;51.498;11.966;2023-04-24T09:22:54;19.90;93.50
17956;DHT22;27666;51.498;11.966;2023-04-24T09:25:41;19.90;93.10
17956;DHT22;27666;51.498;11.966;2023-04-24T09:28:31;20.40;91.00
17956;DHT22;27666;51.498;11.966;2023-04-24T09:31:19;20.80;90.20
17956;DHT22;27666;51.498;11.966;2023-04-24T09:34:07;21.10;90.00
17956;DHT22;27666;51.498;11.966;2023-04-24T09:36:54;21.30;87.00
17956;DHT22;27666;51.498;11.966;2023-04-24T09:39:41;21.30;86.40
17956;DHT22;27666;51.498;11.966;2023-04-24T09:42:29;21.20;82.80
17956;DHT22;27666;51.498;11.966;2023-04-24T09:45:18;21.00;80.60
17956;DHT22;27666;51.498;11.966;2023-04-24T09:48:05;21.20;79.00
17956;DHT22;27666;51.498;11.966;2023-04-24T09:50:53;21.10;75.80
17956;DHT22;27666;51.498;11.966;2023-04-24T09:53:39;21.20;76.10
17956;DHT22;27666;51.498;11.966;2023-04-24T09:56:26;21.20;75.20
17956;DHT22;27666;51.498;11.966;2023-04-24T09:59:15;21.00;75.10
17956;DHT22;27666;51.498;11.966;2023-04-24T10:02:03;21.00;74.30
17956;DHT22;27666;51.498;11.966;2023-04-24T10:05:02;21.00;74.20
17956;DHT22;27666;51.498;11.966;2023-04-24T10:07:49;20.90;75.20
17956;DHT22;27666;51.498;11.966;2023-04-24T10:10:41;20.90;74.70
17956;DHT22;27666;51.498;11.966;2023-04-24T10:13:28;20.80;75.40
17956;DHT22;27666;51.498;11.966;2023-04-24T10:16:15;20.30;74.70
17956;DHT22;27666;51.498;11.966;2023-04-24T10:19:03;20.20;75.80
17956;DHT22;27666;51.498;11.966;2023-04-24T10:21:49;20.50;75.20
17956;DHT22;27666;51.498;11.966;2023-04-24T10:24:36;20.70;74.70
17956;DHT22;27666;51.498;11.966;2023-04-24T10:27:25;20.90;73.90
17956;DHT22;27666;51.498;11.966;2023-04-24T10:30:14;21.00;73.70
17956;DHT22;27666;51.498;11.966;2023-04-24T10:33:00;21.10;73.30
17956;DHT22;27666;51.498;11.966;2023-04-24T10:35:50;20.80;74.40
17956;DHT22;27666;51.498;11.966;2023-04-24T10:38:39;20.60;73.50
17956;DHT22;27666;51.498;11.966;2023-04-24T10:41:26;20.20;73.90
17956;DHT22;27666;51.498;11.966;2023-04-24T10:44:14;19.80;74.50
17956;DHT22;27666;51.498;11.966;2023-04-24T10:47:01;19.50;75.20
17956;DHT22;27666;51.498;11.966;2023-04-24T10:49:50;19.30;74.80
17956;DHT22;27666;51.498;11.966;2023-04-24T10:52:45;19.20;74.20
17956;DHT22;27666;51.498;11.966;2023-04-24T10:55:47;19.30;74.60
17956;DHT22;27666;51.498;11.966;2023-04-24T10:58:39;19.20;74.50
17956;DHT22;27666;51.498;11.966;2023-04-24T11:01:30;19.20;75.20
17956;DHT22;27666;51.498;11.966;2023-04-24T11:04:28;19.20;75.10
17956;DHT22;27666;51.498;11.966;2023-04-24T11:07:16;19.20;75.30
17956;DHT22;27666;51.498;11.966;2023-04-24T11:10:04;19.40;76.20
17956;DHT22;27666;51.498;11.966;2023-04-24T11:12:51;19.50;75.80
17956;DHT22;27666;51.498;11.966;2023-04-24T11:15:41;19.50;76.60
17956;DHT22;27666;51.498;11.966;2023-04-24T11:18:37;19.50;73.40
17956;DHT22;27666;51.498;11.966;2023-04-24T11:21:25;19.50;73.00
17956;DHT22;27666;51.498;11.966;2023-04-24T11:24:29;19.60;72.80
17956;DHT22;27666;51.498;11.966;2023-04-24T11:27:19;19.60;72.20
17956;DHT22;27666;51.498;11.966;2023-04-24T11:30:07;19.70;73.10
17956;DHT22;27666;51.498;11.966;2023-04-24T11:32:54;19.80;72.40
17956;DHT22;27666;51.498;11.966;2023-04-24T11:35:41;19.60;71.80
17956;DHT22;27666;51.498;11.966;2023-04-24T11:38:27;19.40;72.00
17956;DHT22;27666;51.498;11.966;2023-04-24T11:41:15;19.30;71.80
17956;DHT22;27666;51.498;11.966;2023-04-24T11:44:05;19.10;72.10
17956;DHT22;27666;51.498;11.966;2023-04-24T11:46:52;19.00;73.00
17956;DHT22;27666;51.498;11.966;2023-04-24T11:49:39;18.90;73.40
17956;DHT22;27666;51.498;11.966;2023-04-24T11:52:25;19.00;74.10
17956;DHT22;27666;51.498;11.966;2023-04-24T11:55:23;19.20;74.20
17956;DHT22;27666;51.498;11.966;2023-04-24T11:58:11;19.30;75.20
17956;DHT22;27666;51.498;11.966;2023-04-24T12:00:59;19.20;74.50
17956;DHT22;27666;51.498;11.966;2023-04-24T12:03:48;19.10;73.00
17956;DHT22;27666;51.498;11.966;2023-04-24T12:06:36;19.10;73.60
17956;DHT22;27666;51.498;11.966;2023-04-24T12:09:22;19.00;73.20
17956;DHT22;27666;51.498;11.966;2023-04-24T12:12:09;18.90;73.60
17956;DHT22;27666;51.498;11.966;2023-04-24T12:14:58;19.00;73.40
17956;DHT22;27666;51.498;11.966;2023-04-24T12:17:47;19.20;73.10
17956;DHT22;27666;51.498;11.966;2023-04-24T12:20:35;19.40;72.40
17956;DHT22;27666;51.498;11.966;2023-04-24T12:23:35;19.30;72.10
17956;DHT22;27666;51.498;11.966;2023-04-24T12:26:22;19.30;71.40
17956;DHT22;27666;51.498;11.966;2023-04-24T12:29:09;19.30;71.90
17956;DHT22;27666;51.498;11.966;2023-04-24T12:31:57;19.30;72.20
17956;DHT22;27666;51.498;11.966;2023-04-24T12:34:45;19.40;72.60
17956;DHT22;27666;51.498;11.966;2023-04-24T12:37:33;19.50;71.70
17956;DHT22;27666;51.498;11.966;2023-04-24T12:40:25;19.60;71.00
17956;DHT22;27666;51.498;11.966;2023-04-24T12:43:14;19.70;71.70
17956;DHT22;27666;51.498;11.966;2023-04-24T12:46:02;19.80;71.50
17956;DHT22;27666;51.498;11.966;2023-04-24T12:48:48;19.70;72.00
17956;DHT22;27666;51.498;11.966;2023-04-24T12:51:37;19.50;72.20
17956;DHT22;27666;51.498;11.966;2023-04-24T12:54:24;19.40;72.90
17956;DHT22;27666;51.498;11.966;2023-04-24T12:57:10;19.20;73.00
17956;DHT22;27666;51.498;11.966;2023-04-24T12:59:58;19.10;73.80
17956;DHT22;27666;51.498;11.966;2023-04-24T13:02:45;19.10;73.00
17956;DHT22;27666;51.498;11.966;2023-04-24T13:05:32;19.10;73.10
17956;DHT22;27666;51.498;11.966;2023-04-24T13:08:20;19.10;73.60
17956;DHT22;27666;51.498;11.966;2023-04-24T13:11:06;19.00;72.30
17956;DHT22;27666;51.498;11.966;2023-04-24T13:13:53;18.90;72.00
17956;DHT22;27666;51.498;11.966;2023-04-24T13:16:39;18.80;72.20
17956;DHT22;27666;51.498;11.966;2023-04-24T13:19:26;18.50;72.80
17956;DHT22;27666;51.498;11.966;2023-04-24T13:22:13;18.50;74.40
17956;DHT22;27666;51.498;11.966;2023-04-24T13:25:01;18.50;75.20
17956;DHT22;27666;51.498;11.966;2023-04-24T13:27:48;18.60;75.30
17956;DHT22;27666;51.498;11.966;2023-04-24T13:30:35;18.50;75.30
17956;DHT22;27666;51.498;11.966;2023-04-24T13:33:21;18.50;75.20
17956;DHT22;27666;51.498;11.966;2023-04-24T13:36:08;18.50;75.80
17956;DHT22;27666;51.498;11.966;2023-04-24T13:38:54;18.60;76.40
17956;DHT22;27666;51.498;11.966;2023-04-24T13:41:42;18.60;76.40
17956;DHT22;27666;51.498;11.966;2023-04-24T13:44:29;18.40;77.20
17956;DHT22;27666;51.498;11.966;2023-04-24T13:47:15;18.30;77.40
17956;DHT22;27666;51.498;11.966;2023-04-24T13:50:02;18.00;78.10
17956;DHT22;27666;51.498;11.966;2023-04-24T13:52:48;17.80;78.60
17956;DHT22;27666;51.498;11.966;2023-04-24T13:55:36;17.90;79.80
17956;DHT22;27666;51.498;11.966;2023-04-24T13:58:27;18.10;79.90
17956;DHT22;27666;51.498;11.966;2023-04-24T14:01:14;18.20;80.50
17956;DHT22;27666;51.498;11.966;2023-04-24T14:04:03;18.10;79.40
17956;DHT22;27666;51.498;11.966;2023-04-24T14:06:50;17.90;79.40
17956;DHT22;27666;51.498;11.966;2023-04-24T14:09:37;17.70;80.50
17956;DHT22;27666;51.498;11.966;2023-04-24T14:12:23;17.60;81.10
17956;DHT22;27666;51.498;11.966;2023-04-24T14:15:12;17.60;82.30
17956;DHT22;27666;51.498;11.966;2023-04-24T14:17:59;17.50;83.50
17956;DHT22;27666;51.498;11.966;2023-04-24T14:20:46;17.30;84.50
17956;DHT22;27666;51.498;11.966;2023-04-24T14:23:32;17.30;85.30
17956;DHT22;27666;51.498;11.966;2023-04-24T14:26:19;17.20;86.00
17956;DHT22;27666;51.498;11.966;2023-04-24T14:29:05;17.10;86.40
17956;DHT22;27666;51.498;11.966;2023-04-24T14:32:00;16.90;88.10
17956;DHT22;27666;51.498;11.966;2023-04-24T14:34:47;16.70;89.90
17956;DHT22;27666;51.498;11.966;2023-04-24T14:37:33;16.60;90.70
17956;DHT22;27666;51.498;11.966;2023-04-24T14:40:21;16.50;91.30
17956;DHT22;27666;51.498;11.966;2023-04-24T14:43:28;16.40;91.10
17956;DHT22;27666;51.498;11.966;2023-04-24T14:46:14;16.20;90.10
17956;DHT22;27666;51.498;11.966;2023-04-24T14:49:02;16.00;90.40
17956;DHT22;27666;51.498;11.966;2023-04-24T14:51:49;15.80;90.60
17956;DHT22;27666;51.498;11.966;2023-04-24T14:54:35;15.70;90.60
17956;DHT22;27666;51.498;11.966;2023-04-24T14:57:22;15.60;90.70
17956;DHT22;27666;51.498;11.966;2023-04-24T15:00:10;15.60;91.10
17956;DHT22;27666;51.498;11.966;2023-04-24T15:02:56;15.70;91.40
17956;DHT22;27666;51.498;11.966;2023-04-24T15:05:44;15.80;91.10
17956;DHT22;27666;51.498;11.966;2023-04-24T15:08:31;15.90;91.20
17956;DHT22;27666;51.498;11.966;2023-04-24T15:11:18;16.00;90.70
17956;DHT22;27666;51.498;11.966;2023-04-24T15:14:06;15.80;90.40
17956;DHT22;27666;51.498;11.966;2023-04-24T15:16:56;15.60;90.40
17956;DHT22;27666;51.498;11.966;2023-04-24T15:19:42;15.60;90.30
17956;DHT22;27666;51.498;11.966;2023-04-24T15:22:30;15.50;89.60
17956;DHT22;27666;51.498;11.966;2023-04-24T15:25:17;15.60;89.90
17956;DHT22;27666;51.498;11.966;2023-04-24T15:28:04;15.50;90.10
17956;DHT22;27666;51.498;11.966;2023-04-24T15:30:51;15.50;90.20
17956;DHT22;27666;51.498;11.966;2023-04-24T15:33:37;15.60;90.50
17956;DHT22;27666;51.498;11.966;2023-04-24T15:36:23;15.50;90.70
17956;DHT22;27666;51.498;11.966;2023-04-24T15:39:11;15.50;90.60
17956;DHT22;27666;51.498;11.966;2023-04-24T15:42:00;15.50;91.20
17956;DHT22;27666;51.498;11.966;2023-04-24T15:44:47;15.30;90.60
17956;DHT22;27666;51.498;11.966;2023-04-24T15:47:33;15.10;90.40
17956;DHT22;27666;51.498;11.966;2023-04-24T15:50:20;14.90;90.80
17956;DHT22;27666;51.498;11.966;2023-04-24T15:53:08;14.80;91.30
17956;DHT22;27666;51.498;11.966;2023-04-24T15:55:56;14.80;91.80
17956;DHT22;27666;51.498;11.966;2023-04-24T15:58:43;14.80;91.70
17956;DHT22;27666;51.498;11.966;2023-04-24T16:01:30;14.70;92.10
17956;DHT22;27666;51.498;11.966;2023-04-24T16:04:17;14.80;92.60
17956;DHT22;27666;51.498;11.966;2023-04-24T16:07:05;14.80;92.70
17956;DHT22;27666;51.498;11.966;2023-04-24T16:09:52;14.70;92.90
17956;DHT22;27666;51.498;11.966;2023-04-24T16:12:42;14.60;92.70
17956;DHT22;27666;51.498;11.966;2023-04-24T16:15:30;14.50;93.20
17956;DHT22;27666;51.498;11.966;2023-04-24T16:18:16;14.30;93.60
17956;DHT22;27666;51.498;11.966;2023-04-24T16:21:03;14.20;94.20
17956;DHT22;27666;51.498;11.966;2023-04-24T16:23:53;14.00;94.70
17956;DHT22;27666;51.498;11.966;2023-04-24T16:26:39;14.00;95.10
17956;DHT22;27666;51.498;11.966;2023-04-24T16:29:27;14.20;95.30
17956;DHT22;27666;51.498;11.966;2023-04-24T16:32:14;14.20;94.90
17956;DHT22;27666;51.498;11.966;2023-04-24T16:35:00;14.10;95.10
17956;DHT22;27666;51.498;11.966;2023-04-24T16:37:47;13.90;94.60
17956;DHT22;27666;51.498;11.966;2023-04-24T16:40:34;13.70;94.90
17956;DHT22;27666;51.498;11.966;2023-04-24T16:43:20;13.50;95.20
17956;DHT22;27666;51.498;11.966;2023-04-24T16:46:08;13.40;96.00
17956;DHT22;27666;51.498;11.966;2023-04-24T16:48:56;13.30;96.50
17956;DHT22;27666;51.498;11.966;2023-04-24T16:51:43;13.30;97.00
17956;DHT22;27666;51.498;11.966;2023-04-24T16:54:30;13.40;97.00
17956;DHT22;27666;51.498;11.966;2023-04-24T16:57:18;13.40;97.20
17956;DHT22;27666;51.498;11.966;2023-04-24T17:00:07;13.30;97.30
17956;DHT22;27666;51.498;11.966;2023-04-24T17:02:55;13.30;97.80
17956;DHT22;27666;51.498;11.966;2023-04-24T17:05:42;13.20;98.40
17956;DHT22;27666;51.498;11.966;2023-04-24T17:08:29;13.10;98.60
17956;DHT22;27666;51.498;11.966;2023-04-24T17:11:17;13.20;98.80
17956;DHT22;27666;51.498;11.966;2023-04-24T17:14:04;13.20;99.00
17956;DHT22;27666;51.498;11.966;2023-04-24T17:16:51;13.30;99.00
17956;DHT22;27666;51.498;11.966;2023-04-24T17:19:39;13.20;98.90
17956;DHT22;27666;51.498;11.966;2023-04-24T17:22:26;13.30;99.10
17956;DHT22;27666;51.498;11.966;2023-04-24T17:25:13;13.30;99.20